Time;durP1;ratioP1;P1;durP2;ratioP2;P2;SDS_P1;SDS_P2;PMS_P1;PMS_P2;Temp;Humidity;BMP_temperature;BMP_pressure;BME280_temperature;BME280_humidity;BME280_pressure;Samples;Min_cycle;Max_cycle;Signal;HPM_P1;HPM_P2
2023/06/25 00:02:26;;;;;;;13.50;9.70;;;;;;;16.97;81.21;100987.66;103975;1282;99157;-83
2023/06/25 00:05:11;;;;;;;12.40;10.90;;;;;;;16.90;81.43;100993.86;104031;1280;99044;-84
2023/06/25 00:07:58;;;;;;;15.40;10.50;;;;;;;16.84;81.47;100994.27;104197;1284;98011;-86
2023/06/25 00:10:44;;;;;;;14.40;10.80;;;;;;;16.77;81.59;100993.28;104127;1282;97993;-84
2023/06/25 00:13:29;;;;;;;12.80;10.90;;;;;;;16.72;81.83;100993.86;104275;1280;101317;-86
2023/06/25 00:16:15;;;;;;;13.10;9.90;;;;;;;16.69;81.79;100994.29;104110;1286;99126;-85
2023/06/25 00:19:00;;;;;;;11.80;10.50;;;;;;;16.66;81.80;100996.05;104070;1283;98134;-84
2023/06/25 00:21:46;;;;;;;16.20;10.70;;;;;;;16.64;82.06;100999.84;103806;1287;98058;-85
2023/06/25 00:24:31;;;;;;;12.80;10.60;;;;;;;16.61;82.01;101002.65;104240;1278;98810;-85
2023/06/25 00:27:19;;;;;;;13.50;10.10;;;;;;;16.56;82.12;101002.80;104034;1280;102010;-85
2023/06/25 00:30:05;;;;;;;12.90;10.60;;;;;;;16.51;81.90;100998.33;103998;1280;100110;-84
2023/06/25 00:32:54;;;;;;;11.60;10.30;;;;;;;16.45;81.89;100995.52;104231;1280;98628;-84
2023/06/25 00:36:02;;;;;;;12.80;10.70;;;;;;;16.41;82.34;100991.74;103812;1280;98046;-84
2023/06/25 00:38:47;;;;;;;13.70;12.00;;;;;;;16.37;82.34;100990.67;103902;1286;99793;-85
2023/06/25 00:41:33;;;;;;;13.50;11.00;;;;;;;16.34;83.22;100994.52;103967;1280;102681;-84
2023/06/25 00:44:18;;;;;;;15.90;11.90;;;;;;;16.32;83.34;100997.15;104005;1283;99151;-86
2023/06/25 00:47:05;;;;;;;12.00;9.70;;;;;;;16.29;83.06;100990.78;103820;1286;98179;-85
2023/06/25 00:49:51;;;;;;;13.10;11.20;;;;;;;16.23;82.84;100989.27;103865;1280;97992;-85
2023/06/25 00:52:36;;;;;;;10.50;9.10;;;;;;;16.19;83.03;100989.09;104092;1280;98497;-85
2023/06/25 00:55:22;;;;;;;13.30;11.10;;;;;;;16.18;83.61;100989.05;103840;1285;102738;-86
2023/06/25 00:58:08;;;;;;;16.30;12.00;;;;;;;16.16;83.75;100987.84;103922;1283;99112;-87
2023/06/25 01:00:59;;;;;;;12.40;10.20;;;;;;;16.13;83.29;100985.27;104111;1280;98836;-83
2023/06/25 01:03:55;;;;;;;15.80;12.50;;;;;;;16.08;83.87;100979.61;103857;1279;98056;-85
2023/06/25 01:06:48;;;;;;;13.00;10.60;;;;;;;16.04;84.14;100976.76;103898;1283;98095;-86
2023/06/25 01:09:35;;;;;;;11.10;9.30;;;;;;;16.01;83.75;100973.48;103843;1280;101426;-83
2023/06/25 01:12:21;;;;;;;11.00;9.30;;;;;;;15.93;83.36;100971.79;103848;1285;100561;-85
2023/06/25 01:15:09;;;;;;;10.40;8.90;;;;;;;15.87;83.13;100971.15;103908;1278;98060;-84
2023/06/25 01:17:57;;;;;;;12.00;9.70;;;;;;;15.79;83.17;100973.61;103941;1282;98157;-84
2023/06/25 01:20:43;;;;;;;11.20;10.00;;;;;;;15.76;83.48;100975.13;104022;1283;98593;-86
2023/06/25 01:23:29;;;;;;;12.30;10.00;;;;;;;15.75;83.76;100973.24;104169;1282;102655;-84
2023/06/25 01:26:14;;;;;;;11.90;9.50;;;;;;;15.76;84.47;100971.46;104146;1280;99731;-83
2023/06/25 01:29:00;;;;;;;13.30;10.90;;;;;;;15.79;85.12;100964.77;103932;1285;99611;-85
2023/06/25 01:31:46;;;;;;;11.90;10.20;;;;;;;15.82;84.92;100961.02;104117;1284;97995;-85
2023/06/25 01:34:32;;;;;;;15.50;10.40;;;;;;;15.81;84.83;100957.86;104217;1282;98593;-84
2023/06/25 01:37:18;;;;;;;11.50;10.30;;;;;;;15.82;85.06;100956.45;104161;1280;101406;-83
2023/06/25 01:40:07;;;;;;;13.10;11.10;;;;;;;15.83;85.11;100957.06;104148;1280;99222;-85
2023/06/25 01:42:53;;;;;;;12.10;10.60;;;;;;;15.82;85.50;100956.08;103887;1283;98724;-86
2023/06/25 01:45:39;;;;;;;13.50;10.10;;;;;;;15.82;85.41;100961.73;104050;1283;98023;-85
2023/06/25 01:48:25;;;;;;;13.90;10.80;;;;;;;15.82;85.61;100968.22;104162;1280;98077;-85
2023/06/25 01:51:11;;;;;;;11.70;10.50;;;;;;;15.81;85.91;100964.55;104086;1285;102275;-85
2023/06/25 01:53:58;;;;;;;13.80;11.40;;;;;;;15.81;86.20;100967.22;104109;1279;99163;-85
2023/06/25 01:56:43;;;;;;;12.20;10.70;;;;;;;15.81;86.74;100963.05;104108;1285;99076;-85
2023/06/25 01:59:29;;;;;;;14.00;10.40;;;;;;;15.81;86.60;100964.55;103785;1288;97962;-85
2023/06/25 02:02:15;;;;;;;12.60;10.70;;;;;;;15.79;86.60;100962.77;104236;1280;98284;-88
2023/06/25 02:05:01;;;;;;;12.10;10.30;;;;;;;15.79;86.82;100957.67;104166;1282;102705;-85
2023/06/25 02:07:47;;;;;;;12.80;11.50;;;;;;;15.78;86.78;100956.25;104138;1280;99224;-85
2023/06/25 02:10:32;;;;;;;16.40;10.20;;;;;;;15.76;87.02;100956.91;103877;1286;105739;-85
2023/06/25 02:13:19;;;;;;;13.60;10.60;;;;;;;15.75;86.87;100959.25;103991;1285;98053;-85
2023/06/25 02:16:04;;;;;;;11.90;10.20;;;;;;;15.76;86.96;100957.35;104021;1280;98442;-86
2023/06/25 02:18:50;;;;;;;12.50;9.10;;;;;;;15.77;86.80;100954.63;104086;1280;102643;-84
2023/06/25 02:21:36;;;;;;;15.40;10.70;;;;;;;15.77;86.51;100950.14;104228;1279;99231;-85
2023/06/25 02:24:25;;;;;;;13.00;9.60;;;;;;;15.76;86.44;100951.27;103997;1280;98005;-83
2023/06/25 02:27:11;;;;;;;10.80;9.10;;;;;;;15.73;86.24;100951.70;103888;1285;98666;-84
2023/06/25 02:29:57;;;;;;;12.10;9.30;;;;;;;15.69;86.34;100955.36;103879;1285;98747;-85
2023/06/25 02:32:42;;;;;;;13.60;8.70;;;;;;;15.68;86.53;100962.17;104034;1283;102323;-84
2023/06/25 02:35:28;;;;;;;10.80;9.00;;;;;;;15.66;86.51;100956.86;104004;1283;99720;-84
2023/06/25 02:38:14;;;;;;;11.30;8.50;;;;;;;15.65;86.40;100957.41;104091;1280;98427;-84
2023/06/25 02:41:00;;;;;;;10.70;9.60;;;;;;;15.66;86.54;100963.14;104171;1279;97890;-86
2023/06/25 02:43:45;;;;;;;12.00;9.50;;;;;;;15.64;86.41;100967.63;103992;1280;98062;-84
2023/06/25 02:46:31;;;;;;;12.70;8.90;;;;;;;15.63;86.51;100967.08;104175;1279;101466;-84
2023/06/25 02:49:17;;;;;;;11.20;9.70;;;;;;;15.62;86.51;100965.46;103931;1283;100441;-84
2023/06/25 02:52:03;;;;;;;12.50;9.60;;;;;;;15.63;86.63;100962.76;103879;1286;98345;-84
2023/06/25 02:54:49;;;;;;;10.90;9.40;;;;;;;15.63;86.60;100963.42;103939;1280;97937;-83
2023/06/25 02:57:36;;;;;;;11.90;9.30;;;;;;;15.61;86.45;100959.61;103998;1278;99636;-86
2023/06/25 03:00:22;;;;;;;11.50;8.50;;;;;;;15.59;86.95;100959.54;103871;1279;102022;-86
2023/06/25 03:03:07;;;;;;;11.50;9.30;;;;;;;15.60;87.18;100956.59;104038;1279;99943;-86
2023/06/25 03:05:53;;;;;;;11.50;8.90;;;;;;;15.58;86.88;100957.34;103806;1284;97971;-85
2023/06/25 03:08:39;;;;;;;13.10;9.70;;;;;;;15.56;86.82;100955.84;103809;1286;98024;-85
2023/06/25 03:11:25;;;;;;;11.50;9.00;;;;;;;15.55;87.31;100950.36;104214;1284;97908;-86
2023/06/25 03:14:10;;;;;;;13.00;9.00;;;;;;;15.55;87.40;100949.65;104030;1280;103169;-84
2023/06/25 03:16:56;;;;;;;12.80;9.70;;;;;;;15.56;87.56;100952.56;104205;1279;99118;-86
2023/06/25 03:19:42;;;;;;;11.50;8.90;;;;;;;15.58;87.32;100951.81;104094;1280;99156;-85
2023/06/25 03:22:28;;;;;;;11.00;9.40;;;;;;;15.60;87.69;100956.21;103939;1283;98059;-85
2023/06/25 03:25:14;;;;;;;16.00;10.20;;;;;;;15.62;87.86;100962.52;103932;1280;98449;-84
2023/06/25 03:28:02;;;;;;;10.90;9.40;;;;;;;15.64;87.64;100959.48;103809;1279;102269;-86
2023/06/25 03:30:48;;;;;;;16.40;9.60;;;;;;;15.66;87.52;100957.11;104041;1280;98966;-84
2023/06/25 03:33:35;;;;;;;12.00;10.70;;;;;;;15.66;87.55;100960.69;104174;1280;98049;-84
2023/06/25 03:36:22;;;;;;;9.90;8.50;;;;;;;15.66;87.55;100957.45;104206;1283;98045;-84
2023/06/25 03:39:08;;;;;;;16.80;9.30;;;;;;;15.67;87.81;100961.42;104021;1285;98462;-84
2023/06/25 03:41:53;;;;;;;12.00;8.50;;;;;;;15.68;88.01;100960.10;104093;1284;102124;-85
2023/06/25 03:44:53;;;;;;;9.90;8.90;;;;;;;15.67;88.13;100957.03;103952;1280;99264;-84
2023/06/25 03:47:41;;;;;;;12.30;9.50;;;;;;;15.64;88.10;100955.70;103846;1280;98429;-84
2023/06/25 03:50:27;;;;;;;12.70;9.70;;;;;;;15.64;88.40;100954.45;103941;1285;98004;-84
2023/06/25 03:53:13;;;;;;;10.10;8.90;;;;;;;15.66;88.46;100948.67;103921;1283;98464;-86
2023/06/25 03:55:59;;;;;;;13.40;10.40;;;;;;;15.69;88.72;100952.74;104110;1283;101382;-85
2023/06/25 03:58:45;;;;;;;15.40;11.10;;;;;;;15.71;88.81;100959.67;103953;1280;99129;-85
2023/06/25 04:01:31;;;;;;;11.20;9.50;;;;;;;15.75;89.11;100962.87;103855;1283;99071;-84
2023/06/25 04:04:17;;;;;;;14.00;10.00;;;;;;;15.78;89.35;100962.56;104019;1280;97976;-85
2023/06/25 04:07:03;;;;;;;12.00;9.40;;;;;;;15.82;89.79;100963.64;103989;1280;97748;-84
2023/06/25 04:09:48;;;;;;;11.20;9.70;;;;;;;15.89;90.33;100966.90;104103;1279;102666;-85
2023/06/25 04:12:35;;;;;;;16.30;9.60;;;;;;;15.95;90.41;100970.30;103791;1279;100501;-84
2023/06/25 04:15:23;;;;;;;12.10;9.90;;;;;;;16.01;90.21;100969.82;103993;1280;98474;-85
2023/06/25 04:18:08;;;;;;;15.50;10.00;;;;;;;16.06;90.25;100967.76;104152;1283;97979;-85
2023/06/25 04:20:54;;;;;;;11.80;9.50;;;;;;;16.13;90.12;100966.06;104322;1282;97976;-85
2023/06/25 04:23:40;;;;;;;14.90;9.80;;;;;;;16.21;90.18;100964.63;104373;1283;101388;-84
2023/06/25 04:26:27;;;;;;;13.90;9.80;;;;;;;16.31;90.35;100963.63;104029;1288;100002;-84
2023/06/25 04:29:13;;;;;;;14.10;10.30;;;;;;;16.39;90.34;100969.61;104302;1278;98896;-85
2023/06/25 04:32:02;;;;;;;12.80;9.60;;;;;;;16.48;90.17;100971.96;104119;1281;98024;-85
2023/06/25 04:34:49;;;;;;;14.30;9.90;;;;;;;16.57;90.17;100970.84;104198;1279;98475;-85
2023/06/25 04:37:36;;;;;;;11.90;9.90;;;;;;;16.66;90.36;100973.91;103898;1279;102788;-85
2023/06/25 04:40:22;;;;;;;17.00;11.10;;;;;;;16.76;90.20;100974.67;103863;1279;99868;-86
2023/06/25 04:43:13;;;;;;;11.20;9.80;;;;;;;16.85;90.28;100968.58;104209;1280;99029;-83
2023/06/25 04:46:00;;;;;;;14.20;10.50;;;;;;;16.93;90.16;100964.29;104007;1285;97967;-85
2023/06/25 04:48:46;;;;;;;14.00;11.20;;;;;;;16.98;90.35;100963.70;104028;1280;97935;-85
2023/06/25 04:51:32;;;;;;;15.30;11.50;;;;;;;16.99;89.98;100961.45;103911;1278;101409;-84
2023/06/25 04:54:18;;;;;;;13.90;11.20;;;;;;;17.00;90.28;100961.60;104233;1279;99195;-84
2023/06/25 04:57:03;;;;;;;14.90;9.70;;;;;;;17.03;90.65;100961.59;104081;1282;98053;-85
2023/06/25 04:59:49;;;;;;;14.80;10.20;;;;;;;17.05;90.79;100958.41;103999;1285;97989;-85
2023/06/25 05:02:35;;;;;;;21.30;11.80;;;;;;;17.10;91.30;100957.50;104247;1283;97899;-84
2023/06/25 05:05:21;;;;;;;15.60;11.00;;;;;;;17.17;91.52;100958.60;104203;1286;101493;-84
2023/06/25 05:08:07;;;;;;;13.90;10.70;;;;;;;17.25;91.89;100958.87;104172;1280;100684;-85
2023/06/25 05:10:53;;;;;;;11.90;10.40;;;;;;;17.32;92.10;100960.89;104200;1282;98482;-86
2023/06/25 05:13:38;;;;;;;14.50;11.70;;;;;;;17.40;91.92;100959.02;104134;1284;98004;-85
2023/06/25 05:16:24;;;;;;;14.30;11.40;;;;;;;17.47;92.14;100958.38;104167;1281;98014;-87
2023/06/25 05:19:10;;;;;;;16.20;11.80;;;;;;;17.53;91.51;100957.42;104111;1277;101396;-85
2023/06/25 05:23:44;;;;;;;16.00;11.30;;;;;;;17.70;92.19;100963.64;102992;1292;636028;-84
2023/06/25 05:26:30;;;;;;;16.90;11.50;;;;;;;17.79;92.24;100964.39;105105;1267;95993;-84
2023/06/25 05:29:15;;;;;;;16.30;11.60;;;;;;;17.88;91.86;100963.20;105155;1273;95957;-85
2023/06/25 05:32:01;;;;;;;14.60;11.40;;;;;;;17.95;91.31;100966.73;105213;1272;98590;-85
2023/06/25 05:34:47;;;;;;;12.70;10.40;;;;;;;18.01;91.62;100969.02;105668;1261;99250;-85
2023/06/25 05:37:32;;;;;;;16.20;11.30;;;;;;;18.09;91.75;100968.27;105626;1265;97727;-86
2023/06/25 05:40:17;;;;;;;17.40;12.80;;;;;;;18.18;91.36;100965.61;105896;1272;96388;-85
2023/06/25 05:43:03;;;;;;;15.30;11.70;;;;;;;18.29;91.40;100970.49;106018;1262;95839;-85
2023/06/25 05:45:48;;;;;;;14.20;11.00;;;;;;;18.37;91.06;100973.18;105802;1257;97311;-85
2023/06/25 05:48:34;;;;;;;14.70;11.20;;;;;;;18.47;91.40;100973.42;105920;1259;100083;-86
2023/06/25 05:51:20;;;;;;;15.60;11.40;;;;;;;18.57;91.54;100975.64;105977;1280;98472;-85
2023/06/25 05:54:05;;;;;;;11.50;10.20;;;;;;;18.67;91.04;100974.78;105869;1271;95890;-85
2023/06/25 05:56:51;;;;;;;13.80;9.70;;;;;;;18.77;90.73;100971.96;106088;1257;95969;-84
2023/06/25 05:59:37;;;;;;;13.40;10.00;;;;;;;18.87;90.85;100970.00;106424;1257;98635;-84
2023/06/25 06:02:22;;;;;;;15.10;9.40;;;;;;;18.97;90.50;100969.44;106511;1254;99073;-85
2023/06/25 06:05:08;;;;;;;14.70;10.40;;;;;;;19.03;90.06;100966.79;106141;1254;99023;-85
2023/06/25 06:07:54;;;;;;;13.10;10.10;;;;;;;19.12;89.90;100967.06;106142;1260;95973;-85
2023/06/25 06:10:39;;;;;;;13.30;9.40;;;;;;;19.26;90.09;100963.33;106495;1257;95986;-85
2023/06/25 06:13:25;;;;;;;13.60;10.50;;;;;;;19.36;89.39;100964.19;106402;1254;98668;-84
2023/06/25 06:16:11;;;;;;;14.90;10.10;;;;;;;19.45;88.65;100963.37;106287;1254;99127;-83
2023/06/25 06:18:56;;;;;;;13.40;9.10;;;;;;;19.56;88.88;100961.25;106470;1257;97781;-86
2023/06/25 06:21:42;;;;;;;13.20;9.30;;;;;;;19.64;88.17;100962.27;106284;1257;96788;-84
2023/06/25 06:24:28;;;;;;;12.60;8.80;;;;;;;19.71;87.37;100963.02;106255;1253;95906;-84
2023/06/25 06:27:14;;;;;;;11.90;9.40;;;;;;;19.77;87.61;100960.77;106193;1254;99742;-85
2023/06/25 06:30:00;;;;;;;14.30;9.30;;;;;;;19.85;86.76;100958.86;106294;1257;100452;-85
2023/06/25 06:32:45;;;;;;;15.90;9.30;;;;;;;19.87;86.13;100960.38;106327;1254;99418;-84
2023/06/25 06:35:31;;;;;;;12.70;8.90;;;;;;;19.91;86.17;100963.79;106169;1254;95891;-84
2023/06/25 06:38:17;;;;;;;9.20;7.60;;;;;;;19.97;85.74;100962.08;106166;1257;96423;-85
2023/06/25 06:41:03;;;;;;;10.10;7.70;;;;;;;20.03;85.00;100958.98;106346;1257;99296;-85
2023/06/25 06:43:49;;;;;;;9.90;8.10;;;;;;;20.10;83.82;100959.46;106129;1257;99274;-84
2023/06/25 06:46:34;;;;;;;9.70;8.30;;;;;;;20.14;83.64;100962.38;106143;1254;98403;-84
2023/06/25 06:49:20;;;;;;;10.10;7.70;;;;;;;20.20;83.22;100963.13;106382;1255;95865;-86
2023/06/25 06:52:06;;;;;;;9.90;8.00;;;;;;;20.25;83.52;100956.48;106338;1258;95435;-85
2023/06/25 06:54:52;;;;;;;11.30;7.30;;;;;;;20.34;83.47;100952.52;106575;1254;100404;-85
2023/06/25 06:57:38;;;;;;;11.70;7.80;;;;;;;20.43;82.29;100951.59;106222;1257;99877;-85
2023/06/25 07:00:23;;;;;;;8.50;7.30;;;;;;;20.51;82.35;100951.41;106322;1254;97715;-85
2023/06/25 07:03:09;;;;;;;11.30;7.00;;;;;;;20.61;81.41;100957.55;106397;1253;95819;-85
2023/06/25 07:05:55;;;;;;;11.40;6.90;;;;;;;20.70;80.90;100951.15;106954;1257;95864;-81
2023/06/25 07:08:41;;;;;;;9.50;6.70;;;;;;;20.81;80.19;100950.88;107242;1254;98654;-80
2023/06/25 07:11:26;;;;;;;9.30;6.90;;;;;;;20.86;79.15;100955.58;107275;1254;100003;-81
2023/06/25 07:14:12;;;;;;;10.10;6.60;;;;;;;20.90;78.69;100954.68;107257;1256;98944;-80
2023/06/25 07:16:58;;;;;;;11.80;7.20;;;;;;;20.97;77.99;100950.70;107344;1257;94323;-80
2023/06/25 07:19:44;;;;;;;7.70;6.00;;;;;;;21.08;78.16;100944.34;107232;1254;97003;-81
2023/06/25 07:22:29;;;;;;;9.00;6.10;;;;;;;21.19;77.34;100942.57;107374;1253;99927;-80
2023/06/25 07:25:15;;;;;;;7.80;5.70;;;;;;;21.30;76.41;100946.61;107160;1254;100390;-81
2023/06/25 07:28:01;;;;;;;10.90;5.80;;;;;;;21.38;75.30;100946.85;107291;1256;97685;-79
2023/06/25 07:30:48;;;;;;;7.40;5.30;;;;;;;21.45;73.89;100948.80;107134;1254;95819;-81
2023/06/25 07:33:33;;;;;;;8.90;6.00;;;;;;;21.51;73.29;100948.58;107128;1254;95790;-80
2023/06/25 07:36:19;;;;;;;8.00;6.60;;;;;;;21.57;72.76;100942.60;107177;1253;98614;-81
2023/06/25 07:39:04;;;;;;;12.00;5.50;;;;;;;21.65;72.36;100943.50;107142;1254;100095;-81
2023/06/25 07:41:50;;;;;;;6.40;5.30;;;;;;;21.69;71.09;100941.21;107085;1256;99073;-81
2023/06/25 07:44:35;;;;;;;9.00;5.70;;;;;;;21.74;70.83;100938.06;107141;1254;96027;-79
2023/06/25 07:47:21;;;;;;;10.70;5.60;;;;;;;21.79;70.17;100937.25;107087;1254;95886;-81
2023/06/25 07:50:07;;;;;;;10.20;5.40;;;;;;;21.84;69.56;100940.02;107131;1254;99033;-80
2023/06/25 07:52:53;;;;;;;6.40;5.10;;;;;;;21.90;69.17;100938.52;107057;1251;100353;-81
2023/06/25 07:55:40;;;;;;;6.50;5.20;;;;;;;21.96;68.30;100933.25;107080;1253;98984;-81
2023/06/25 07:58:26;;;;;;;7.00;5.60;;;;;;;22.03;67.66;100932.46;107129;1257;95886;-80
2023/06/25 08:01:11;;;;;;;7.00;5.80;;;;;;;22.11;67.28;100927.17;107014;1254;96466;-79
2023/06/25 08:03:57;;;;;;;7.80;4.80;;;;;;;22.19;67.43;100930.70;107066;1257;98618;-80
2023/06/25 08:06:43;;;;;;;7.60;5.00;;;;;;;22.21;66.25;100931.01;106941;1253;99132;-80
2023/06/25 08:09:28;;;;;;;6.00;5.10;;;;;;;22.20;66.16;100927.23;107026;1255;98945;-80
2023/06/25 08:12:16;;;;;;;8.50;5.50;;;;;;;22.29;66.70;100926.45;107015;1254;95843;-79
2023/06/25 08:15:03;;;;;;;8.60;5.40;;;;;;;22.36;65.61;100927.85;107075;1254;95960;-80
2023/06/25 08:17:49;;;;;;;6.60;5.10;;;;;;;22.43;65.45;100934.48;107058;1257;98639;-79
2023/06/25 08:20:34;;;;;;;8.90;5.30;;;;;;;22.55;65.47;100932.75;107139;1254;100487;-79
2023/06/25 08:23:20;;;;;;;5.70;5.10;;;;;;;22.66;65.20;100930.60;106985;1256;97732;-80
2023/06/25 08:26:06;;;;;;;8.40;5.40;;;;;;;22.76;64.60;100933.17;107159;1256;97129;-79
2023/06/25 08:28:52;;;;;;;6.50;4.90;;;;;;;22.84;63.60;100930.34;107169;1254;96438;-79
2023/06/25 08:31:37;;;;;;;6.50;5.20;;;;;;;22.93;63.39;100922.71;107139;1254;98647;-80
2023/06/25 08:34:23;;;;;;;6.80;5.00;;;;;;;22.99;62.63;100919.70;107072;1254;99841;-79
2023/06/25 08:37:08;;;;;;;6.90;4.80;;;;;;;22.95;61.72;100921.53;106642;1253;97690;-79
2023/06/25 08:39:54;;;;;;;7.00;5.00;;;;;;;22.91;61.20;100914.02;107250;1257;95285;-80
2023/06/25 08:42:41;;;;;;;6.90;4.90;;;;;;;22.95;61.80;100914.10;107297;1254;95820;-81
2023/06/25 08:45:26;;;;;;;6.40;4.80;;;;;;;23.04;61.91;100914.78;107145;1254;98621;-81
2023/06/25 08:48:16;;;;;;;8.60;5.00;;;;;;;23.11;61.31;100912.22;107367;1253;100590;-80
2023/06/25 08:51:12;;;;;;;6.50;5.60;;;;;;;23.16;61.04;100907.98;107252;1254;97693;-82
2023/06/25 08:53:57;;;;;;;8.90;5.70;;;;;;;23.19;61.32;100906.80;107227;1254;95895;-81
2023/06/25 08:56:43;;;;;;;8.90;5.30;;;;;;;23.25;61.17;100904.34;107202;1254;95254;-82
2023/06/25 08:59:29;;;;;;;10.40;5.30;;;;;;;23.29;60.59;100904.85;107339;1254;98617;-82
2023/06/25 09:02:14;;;;;;;6.20;5.30;;;;;;;23.35;61.15;100900.65;107153;1254;99673;-82
2023/06/25 09:05:05;;;;;;;6.90;5.20;;;;;;;23.43;60.82;100899.08;107271;1256;99320;-81
2023/06/25 09:07:50;;;;;;;8.40;4.80;;;;;;;23.54;61.42;100905.54;107130;1254;96792;-81
2023/06/25 09:10:36;;;;;;;7.60;4.90;;;;;;;23.64;61.43;100906.58;107171;1256;96068;-81
2023/06/25 09:13:26;;;;;;;8.30;5.30;;;;;;;23.69;60.65;100907.98;107144;1255;98626;-81
2023/06/25 09:16:12;;;;;;;7.50;5.70;;;;;;;23.63;59.59;100907.07;107120;1253;99938;-81
2023/06/25 09:19:01;;;;;;;6.00;5.40;;;;;;;23.56;59.85;100912.13;107166;1255;97717;-81
2023/06/25 09:21:48;;;;;;;7.80;6.10;;;;;;;23.51;59.89;100914.00;107207;1256;95905;-82
2023/06/25 09:24:33;;;;;;;6.30;5.30;;;;;;;23.43;59.29;100914.13;107017;1254;95852;-80
2023/06/25 09:27:20;;;;;;;9.20;5.40;;;;;;;23.38;59.44;100912.05;107153;1254;98619;-81
2023/06/25 09:30:10;;;;;;;8.30;5.60;;;;;;;23.35;59.45;100909.06;107105;1254;99505;-80
2023/06/25 09:32:56;;;;;;;6.40;4.80;;;;;;;23.39;59.87;100900.80;107057;1251;97762;-82
2023/06/25 09:35:41;;;;;;;6.20;5.10;;;;;;;23.53;59.90;100898.65;107201;1254;95839;-81
2023/06/25 09:38:27;;;;;;;6.10;5.00;;;;;;;23.64;59.66;100896.85;107180;1254;95852;-82
2023/06/25 09:41:17;;;;;;;6.20;5.40;;;;;;;23.74;59.63;100893.67;107279;1254;99659;-81
2023/06/25 09:44:04;;;;;;;5.80;5.20;;;;;;;23.86;59.44;100886.95;107159;1256;100352;-81
2023/06/25 09:46:54;;;;;;;6.30;5.00;;;;;;;23.93;58.47;100882.43;107033;1255;97724;-81
2023/06/25 09:49:41;;;;;;;6.70;5.00;;;;;;;24.01;58.44;100884.45;107244;1253;95919;-80
2023/06/25 09:52:27;;;;;;;5.30;4.60;;;;;;;24.07;58.06;100879.84;107403;1252;97001;-81
2023/06/25 09:55:14;;;;;;;6.30;5.00;;;;;;;24.14;57.59;100879.37;107276;1256;99222;-81
2023/06/25 09:58:01;;;;;;;6.20;5.40;;;;;;;24.25;57.65;100876.98;107343;1253;100335;-81
2023/06/25 10:00:47;;;;;;;6.90;4.70;;;;;;;24.32;56.89;100870.39;107162;1254;97744;-81
2023/06/25 10:03:34;;;;;;;8.00;4.80;;;;;;;24.35;56.89;100875.27;107223;1257;96668;-81
2023/06/25 10:06:19;;;;;;;7.90;5.10;;;;;;;24.38;55.72;100878.60;107345;1253;97308;-81
2023/06/25 10:09:06;;;;;;;8.10;4.30;;;;;;;24.39;55.09;100880.85;107359;1256;99972;-81
2023/06/25 10:11:54;;;;;;;6.40;5.00;;;;;;;24.34;54.76;100882.76;107346;1253;99993;-81
2023/06/25 10:14:41;;;;;;;7.70;5.20;;;;;;;24.27;54.42;100883.28;107457;1253;97730;-81
2023/06/25 10:17:26;;;;;;;7.20;4.90;;;;;;;24.24;54.70;100880.81;107450;1256;96611;-80
2023/06/25 10:20:12;;;;;;;5.10;4.60;;;;;;;24.23;54.26;100880.42;107443;1253;96662;-81
2023/06/25 10:23:03;;;;;;;6.00;5.00;;;;;;;24.28;54.34;100876.44;107462;1253;99971;-80
2023/06/25 10:25:54;;;;;;;9.30;5.40;;;;;;;24.36;54.23;100879.37;107337;1256;99147;-81
2023/06/25 10:28:41;;;;;;;8.00;5.40;;;;;;;24.42;54.36;100879.05;107349;1254;98755;-81
2023/06/25 10:31:39;;;;;;;6.80;5.40;;;;;;;24.52;55.29;100876.11;107259;1253;96515;-81
2023/06/25 10:34:25;;;;;;;6.60;5.00;;;;;;;24.66;55.20;100880.52;107242;1256;96822;-81
2023/06/25 10:37:12;;;;;;;6.50;5.00;;;;;;;24.72;54.14;100876.63;107213;1254;100695;-80
2023/06/25 10:40:07;;;;;;;6.00;4.90;;;;;;;24.81;54.52;100872.88;107422;1254;99832;-81
2023/06/25 10:42:52;;;;;;;6.50;5.10;;;;;;;24.96;54.07;100870.09;107247;1256;97769;-81
2023/06/25 10:45:37;;;;;;;9.40;5.40;;;;;;;25.06;53.25;100870.07;107234;1256;96603;-81
2023/06/25 10:48:24;;;;;;;7.30;4.90;;;;;;;25.09;52.87;100871.11;107404;1253;96498;-81
2023/06/25 10:51:10;;;;;;;9.70;5.60;;;;;;;25.12;52.83;100868.91;107338;1253;101095;-81
2023/06/25 10:53:56;;;;;;;9.30;5.50;;;;;;;25.22;53.25;100873.85;107307;1251;99863;-81
2023/06/25 10:56:41;;;;;;;6.90;5.20;;;;;;;25.32;53.16;100867.46;107228;1256;98744;-81
2023/06/25 10:59:27;;;;;;;5.90;5.30;;;;;;;25.38;52.20;100868.16;107298;1251;97059;-80
2023/06/25 11:02:22;;;;;;;6.70;5.10;;;;;;;25.39;52.07;100866.12;107343;1251;97486;-82
2023/06/25 11:05:08;;;;;;;5.40;4.90;;;;;;;25.35;52.20;100866.52;107318;1253;99995;-81
2023/06/25 11:07:56;;;;;;;5.60;4.90;;;;;;;25.29;52.11;100868.61;107391;1256;99118;-80
2023/06/25 11:10:43;;;;;;;5.60;4.60;;;;;;;25.19;51.74;100863.04;107294;1254;98980;-80
2023/06/25 11:13:31;;;;;;;8.00;4.90;;;;;;;25.14;52.90;100865.36;107187;1256;96566;-80
2023/06/25 11:16:19;;;;;;;5.40;4.70;;;;;;;25.13;52.16;100865.08;107315;1256;96605;-81
2023/06/25 11:19:04;;;;;;;5.80;4.60;;;;;;;25.12;52.27;100863.60;107435;1254;99988;-81
2023/06/25 11:21:50;;;;;;;8.60;5.00;;;;;;;25.16;52.41;100861.08;107383;1253;100346;-81
2023/06/25 11:24:37;;;;;;;10.40;5.10;;;;;;;25.13;51.90;100856.69;107310;1252;97753;-80
2023/06/25 11:27:25;;;;;;;7.00;5.00;;;;;;;25.04;51.36;100854.34;107292;1253;97180;-81
2023/06/25 11:30:10;;;;;;;6.00;4.70;;;;;;;25.00;51.72;100852.54;107311;1251;96638;-80
2023/06/25 11:33:16;;;;;;;6.50;4.90;;;;;;;24.92;51.00;100852.42;107424;1253;101195;-81
2023/06/25 11:36:07;;;;;;;5.30;4.80;;;;;;;24.85;51.41;100849.04;107333;1253;99191;-81
2023/06/25 11:38:52;;;;;;;6.10;4.60;;;;;;;24.91;51.31;100848.94;107389;1253;97714;-81
2023/06/25 11:41:37;;;;;;;7.30;5.30;;;;;;;24.99;51.77;100845.69;107225;1253;96732;-81
2023/06/25 11:44:23;;;;;;;8.10;4.80;;;;;;;25.08;52.27;100840.91;107379;1252;97372;-81
2023/06/25 11:47:10;;;;;;;5.90;4.60;;;;;;;25.11;52.06;100836.63;107256;1253;99947;-80
2023/06/25 11:49:57;;;;;;;4.80;4.40;;;;;;;25.02;51.59;100837.13;107239;1253;99149;-81
2023/06/25 11:52:43;;;;;;;5.10;4.60;;;;;;;24.90;51.73;100840.20;107365;1253;97699;-81
2023/06/25 11:55:28;;;;;;;8.80;5.10;;;;;;;24.77;51.65;100833.09;107204;1254;96659;-81
2023/06/25 11:58:14;;;;;;;6.00;5.40;;;;;;;24.67;51.80;100827.20;107299;1253;96602;-80
2023/06/25 12:01:00;;;;;;;8.40;5.00;;;;;;;24.69;51.91;100822.70;107274;1253;99998;-81
2023/06/25 12:03:46;;;;;;;6.10;5.00;;;;;;;24.83;52.25;100819.16;107146;1251;99195;-80
2023/06/25 12:06:31;;;;;;;7.20;5.10;;;;;;;25.03;52.25;100817.13;107120;1253;98961;-79
2023/06/25 12:09:17;;;;;;;6.60;4.60;;;;;;;25.19;51.61;100809.79;106962;1255;96424;-80
2023/06/25 12:12:03;;;;;;;6.00;4.90;;;;;;;25.33;51.37;100809.04;107388;1251;96983;-81
2023/06/25 12:14:49;;;;;;;8.20;5.10;;;;;;;25.49;50.99;100805.56;107335;1252;100592;-81
2023/06/25 12:17:34;;;;;;;5.90;4.90;;;;;;;25.63;50.29;100803.70;107297;1252;99067;-81
2023/06/25 12:20:20;;;;;;;7.30;4.90;;;;;;;25.71;49.43;100801.31;107355;1254;98724;-81
2023/06/25 12:23:05;;;;;;;6.40;4.90;;;;;;;25.76;48.21;100793.55;107324;1253;96593;-80
2023/06/25 12:25:51;;;;;;;5.70;5.00;;;;;;;25.79;48.37;100789.40;107359;1256;96518;-80
2023/06/25 12:28:36;;;;;;;8.10;5.10;;;;;;;25.90;48.81;100784.73;107354;1256;99962;-80
2023/06/25 12:31:23;;;;;;;6.50;5.40;;;;;;;25.98;47.92;100776.77;107357;1253;100470;-80
2023/06/25 12:34:08;;;;;;;6.30;4.30;;;;;;;26.08;48.53;100776.52;107220;1253;97699;-81
2023/06/25 12:36:54;;;;;;;7.00;4.50;;;;;;;26.15;47.77;100779.29;107189;1253;96488;-80
2023/06/25 12:39:39;;;;;;;7.60;4.70;;;;;;;26.17;46.98;100777.24;107376;1253;96911;-81